Time;durP1;ratioP1;P1;durP2;ratioP2;P2;SDS_P1;SDS_P2;PMS_P1;PMS_P2;Temp;Humidity;BMP_temperature;BMP_pressure;BME280_temperature;BME280_humidity;BME280_pressure;Samples;Min_cycle;Max_cycle;Signal;HPM_P1;HPM_P2
2022/02/28 00:00:22;;;;;;;3.42;1.85;;;;;;;0.05;100.00;101858.56;4951328;29;20538;-57
2022/02/28 00:03:07;;;;;;;3.60;1.98;;;;;;;-0.06;100.00;101864.91;4948660;29;20106;-59
2022/02/28 00:05:52;;;;;;;3.63;2.20;;;;;;;-0.04;100.00;101854.53;4950198;29;20074;-60
2022/02/28 00:08:37;;;;;;;;;;;;;;;-0.12;100.00;101861.03;4930801;29;20530;-54
2022/02/28 00:11:21;;;;;;;3.63;2.08;;;;;;;-0.29;100.00;101841.88;4928467;29;19996;-60
2022/02/28 00:14:06;;;;;;;3.53;1.90;;;;;;;-0.09;100.00;101854.31;4950905;29;20135;-57
2022/02/28 00:16:51;;;;;;;4.03;1.90;;;;;;;-0.14;100.00;101857.47;4948182;29;20126;-55
2022/02/28 00:19:36;;;;;;;5.32;2.25;;;;;;;-0.19;100.00;101866.75;4943343;29;20101;-54
2022/02/28 00:22:21;;;;;;;3.28;2.00;;;;;;;-0.13;100.00;101860.16;4947198;29;20058;-54
2022/02/28 00:25:08;;;;;;;3.33;1.65;;;;;;;-0.09;100.00;101858.59;4949817;29;20118;-52
2022/02/28 00:27:54;;;;;;;3.95;1.98;;;;;;;-0.23;100.00;101856.97;4949467;29;20081;-56
2022/02/28 00:30:40;;;;;;;3.60;2.08;;;;;;;-0.22;100.00;101849.22;4921654;29;20549;-61
2022/02/28 00:33:29;;;;;;;4.88;1.88;;;;;;;-0.11;100.00;101857.66;4937105;29;20054;-57
2022/02/28 00:36:14;;;;;;;4.10;1.70;;;;;;;-0.05;100.00;101858.88;4948159;29;20126;-54
2022/02/28 00:38:59;;;;;;;3.45;1.98;;;;;;;-0.22;100.00;101853.53;4948194;29;20137;-58
2022/02/28 00:41:43;;;;;;;4.45;2.13;;;;;;;-0.10;100.00;101867.25;4945590;29;20799;-56
2022/02/28 00:44:28;;;;;;;4.63;2.10;;;;;;;-0.16;100.00;101862.59;4935090;29;21388;-56
2022/02/28 00:47:13;;;;;;;3.35;2.10;;;;;;;-0.11;100.00;101868.06;4939982;29;20063;-54
2022/02/28 00:49:58;;;;;;;3.97;1.90;;;;;;;-0.16;100.00;101867.81;4927042;29;20106;-57
2022/02/28 00:52:43;;;;;;;7.28;2.58;;;;;;;-0.18;100.00;101856.41;4925017;29;20424;-55
2022/02/28 00:55:27;;;;;;;4.95;2.38;;;;;;;-0.36;100.00;101823.19;4924719;29;20062;-53
2022/02/28 00:58:12;;;;;;;3.97;2.17;;;;;;;-0.14;100.00;101855.78;4930773;29;20201;-55
2022/02/28 01:01:00;;;;;;;4.20;2.20;;;;;;;-0.14;100.00;101857.47;4927645;29;20103;-50
2022/02/28 01:03:46;;;;;;;4.20;2.35;;;;;;;-0.21;100.00;101851.03;4942872;29;20067;-55
2022/02/28 01:06:33;;;;;;;4.63;2.15;;;;;;;-0.27;100.00;101845.44;4924889;29;20080;-57
2022/02/28 01:09:17;;;;;;;2.75;1.92;;;;;;;-0.33;100.00;101846.81;4927460;29;20062;-58
2022/02/28 01:12:05;;;;;;;4.82;2.45;;;;;;;-0.29;100.00;101859.22;4926542;29;20208;-53
2022/02/28 01:14:50;;;;;;;6.30;2.35;;;;;;;-0.31;100.00;101861.72;4911792;29;20078;-57
2022/02/28 01:17:35;;;;;;;4.05;2.30;;;;;;;-0.52;100.00;101829.25;4926658;29;20181;-56
2022/02/28 01:20:20;;;;;;;3.63;2.25;;;;;;;-0.36;100.00;101855.38;4927490;29;20054;-57
2022/02/28 01:23:05;;;;;;;5.68;2.22;;;;;;;-0.38;100.00;101854.41;4927022;29;20102;-57
2022/02/28 01:25:49;;;;;;;3.88;2.22;;;;;;;-0.45;100.00;101849.66;4929314;29;20436;-57
2022/02/28 01:28:35;;;;;;;4.45;2.50;;;;;;;-0.31;100.00;101855.63;4926819;29;20054;-52
2022/02/28 01:31:20;;;;;;;5.00;2.47;;;;;;;-0.36;100.00;101837.13;4930411;29;20106;-55
2022/02/28 01:34:05;;;;;;;4.43;2.10;;;;;;;-0.33;100.00;101849.44;4930832;29;20078;-52
2022/02/28 01:36:49;;;;;;;5.15;2.33;;;;;;;-0.28;100.00;101861.00;4941829;29;20162;-57
2022/02/28 01:39:34;;;;;;;6.38;2.42;;;;;;;-0.50;100.00;101848.50;4926420;29;20094;-56
2022/02/28 01:42:19;;;;;;;5.05;2.40;;;;;;;-0.40;100.00;101852.50;4926958;29;20511;-60
2022/02/28 01:45:05;;;;;;;5.03;2.28;;;;;;;-0.32;100.00;101854.72;4929236;29;20059;-57
2022/02/28 01:47:53;;;;;;;4.82;2.58;;;;;;;-0.32;100.00;101848.59;4925017;29;20499;-54
2022/02/28 01:50:38;;;;;;;4.05;2.25;;;;;;;-0.23;100.00;101851.75;4913868;29;20094;-53
2022/02/28 01:53:23;;;;;;;4.78;2.17;;;;;;;-0.46;100.00;101828.72;4943845;28;20180;-55
2022/02/28 01:56:08;;;;;;;7.35;2.13;;;;;;;-0.32;100.00;101844.31;4924994;29;20509;-59
2022/02/28 01:58:53;;;;;;;4.95;2.58;;;;;;;-0.30;100.00;101852.22;4912208;29;20412;-55
2022/02/28 02:01:38;;;;;;;4.35;2.20;;;;;;;-0.42;100.00;101846.31;4923652;29;20062;-54
2022/02/28 02:04:22;;;;;;;5.78;2.05;;;;;;;-0.50;100.00;101850.19;4912664;29;20066;-54
2022/02/28 02:07:09;;;;;;;4.22;2.08;;;;;;;-0.52;100.00;101839.69;4925560;29;20171;-55
2022/02/28 02:09:56;;;;;;;3.58;2.47;;;;;;;-0.45;100.00;101836.63;4923314;29;20046;-52
2022/02/28 02:12:44;;;;;;;4.18;2.10;;;;;;;-0.40;100.00;101832.56;4911829;29;20068;-51
2022/02/28 02:15:31;;;;;;;5.25;2.28;;;;;;;-0.69;100.00;101782.22;4940562;29;20054;-60
2022/02/28 02:18:15;;;;;;;3.72;2.05;;;;;;;-0.43;100.00;101840.19;4914209;29;20136;-53
2022/02/28 02:21:01;;;;;;;5.88;2.67;;;;;;;-0.44;100.00;101834.88;4927961;29;20542;-56
2022/02/28 02:23:46;;;;;;;5.85;2.72;;;;;;;-0.30;100.00;101844.41;4928625;29;20114;-56
2022/02/28 02:26:30;;;;;;;4.18;2.20;;;;;;;-0.49;100.00;101798.16;4930635;29;20782;-57
2022/02/28 02:29:15;;;;;;;4.28;1.98;;;;;;;-0.36;100.00;101849.25;4929451;29;20058;-59
2022/02/28 02:32:15;;;;;;;4.75;2.40;;;;;;;-0.47;100.00;101837.34;4930051;29;20095;-58
2022/02/28 02:35:01;;;;;;;3.67;2.20;;;;;;;-0.40;100.00;101839.47;4926242;29;20219;-59
2022/02/28 02:37:47;;;;;;;3.88;2.22;;;;;;;-0.74;100.00;101810.59;4927190;29;20050;-58
2022/02/28 02:40:32;;;;;;;3.95;2.10;;;;;;;-0.51;100.00;101844.06;4918531;29;20507;-56
2022/02/28 02:43:17;;;;;;;4.90;3.25;;;;;;;-0.61;100.00;101851.28;4918317;29;20066;-57
2022/02/28 02:46:02;;;;;;;5.57;3.72;;;;;;;-0.63;100.00;101840.75;4918965;29;20050;-56
2022/02/28 02:48:48;;;;;;;8.93;5.13;;;;;;;-0.75;100.00;101807.94;4932127;29;20419;-54
2022/02/28 02:51:35;;;;;;;7.72;4.53;;;;;;;-0.58;100.00;101849.78;4947068;29;20057;-54
2022/02/28 02:54:21;;;;;;;7.65;4.25;;;;;;;-0.59;100.00;101842.75;4921035;29;20095;-56
2022/02/28 02:57:06;;;;;;;;;;;;;;;-0.60;100.00;101843.56;4932349;29;20083;-59
2022/02/28 02:59:52;;;;;;;5.60;2.92;;;;;;;-0.75;100.00;101826.16;4934801;29;20072;-55
2022/02/28 03:02:37;;;;;;;5.45;2.45;;;;;;;-0.63;100.00;101839.91;4914485;29;20141;-54
2022/02/28 03:05:23;;;;;;;6.25;2.20;;;;;;;-0.68;100.00;101826.59;4931170;29;20054;-54
2022/02/28 03:08:08;;;;;;;3.92;2.50;;;;;;;-0.75;100.00;101834.84;4944363;29;20090;-53
2022/02/28 03:10:53;;;;;;;4.68;2.38;;;;;;;-0.68;100.00;101836.09;4929434;29;20054;-56
2022/02/28 03:13:37;;;;;;;4.82;2.22;;;;;;;-0.64;100.00;101832.88;4915887;29;20534;-55
2022/02/28 03:16:22;;;;;;;;;;;;;;;-0.52;100.00;101855.31;4930300;29;20058;-62
2022/02/28 03:19:06;;;;;;;6.35;4.20;;;;;;;-0.67;100.00;101853.56;4933209;29;19949;-60
2022/02/28 03:21:59;;;;;;;8.05;5.93;;;;;;;-0.63;100.00;101852.91;4928148;29;20475;-55
2022/02/28 03:24:44;;;;;;;8.20;5.72;;;;;;;-0.73;100.00;101850.56;4931441;29;20054;-55
2022/02/28 03:27:31;;;;;;;8.88;4.97;;;;;;;-0.81;100.00;101851.84;4925878;29;20103;-53
2022/02/28 03:30:16;;;;;;;5.72;3.83;;;;;;;-0.78;100.00;101852.91;4910923;29;20097;-68
2022/02/28 03:33:02;;;;;;;4.82;3.13;;;;;;;-0.90;100.00;101844.38;4932553;29;20051;-59
2022/02/28 03:35:48;;;;;;;6.10;3.40;;;;;;;-0.87;100.00;101857.59;4929705;29;20067;-52
2022/02/28 03:38:33;;;;;;;5.38;2.95;;;;;;;-0.86;100.00;101848.97;4943967;29;20055;-61
2022/02/28 03:41:20;;;;;;;5.72;2.72;;;;;;;-1.00;100.00;101841.16;4931672;29;20086;-56
2022/02/28 03:44:04;;;;;;;4.93;2.85;;;;;;;-0.84;100.00;101864.66;4944477;28;20392;-59
2022/02/28 03:46:54;;;;;;;5.93;3.13;;;;;;;-0.87;100.00;101860.19;4935417;29;20066;-60
2022/02/28 03:49:44;;;;;;;4.85;3.13;;;;;;;-0.94;100.00;101863.22;4935680;29;20134;-57
2022/02/28 03:52:35;;;;;;;5.50;3.25;;;;;;;-0.91;100.00;101876.44;4950434;29;20059;-58
2022/02/28 03:55:40;;;;;;;7.00;3.65;;;;;;;-0.91;100.00;101876.44;4949328;29;20054;-55
2022/02/28 03:58:25;;;;;;;5.25;3.42;;;;;;;-0.84;100.00;101885.50;4950215;29;20114;-53
2022/02/28 04:01:09;;;;;;;5.53;2.80;;;;;;;-0.81;100.00;101870.97;4935634;29;20062;-57
2022/02/28 04:03:55;;;;;;;5.72;3.15;;;;;;;-0.96;100.00;101843.13;4922903;29;20053;-54
2022/02/28 04:06:45;;;;;;;5.50;2.83;;;;;;;-0.85;100.00;101863.78;4928681;29;20057;-60
2022/02/28 04:09:34;;;;;;;4.13;2.40;;;;;;;-0.79;100.00;101878.88;4934245;29;20594;-57
2022/02/28 04:12:22;;;;;;;4.72;2.72;;;;;;;-1.02;100.00;101838.44;4933043;29;20043;-54
2022/02/28 04:15:08;;;;;;;6.43;2.58;;;;;;;-0.75;100.00;101881.72;4933210;29;20074;-59
2022/02/28 04:17:52;;;;;;;8.60;3.15;;;;;;;-0.80;100.00;101888.38;4947412;29;20763;-55
2022/02/28 04:20:47;;;;;;;5.00;2.58;;;;;;;-1.17;100.00;101842.78;4932571;29;20082;-55
2022/02/28 04:23:32;;;;;;;5.78;3.33;;;;;;;-1.26;100.00;101877.75;4934413;29;20126;-58
2022/02/28 04:26:18;;;;;;;6.82;3.30;;;;;;;-1.05;100.00;101898.19;4935084;29;20609;-63
2022/02/28 04:29:04;;;;;;;4.03;2.72;;;;;;;-1.07;100.00;101873.75;4946880;29;20461;-62
2022/02/28 04:31:49;;;;;;;5.07;2.80;;;;;;;-0.86;100.00;101893.22;4922134;29;20058;-60
2022/02/28 04:34:34;;;;;;;6.70;3.10;;;;;;;-0.87;100.00;101898.38;4947588;29;20069;-58
2022/02/28 04:37:19;;;;;;;5.63;2.83;;;;;;;-0.84;100.00;101895.91;4920833;29;20415;-60
2022/02/28 04:40:05;;;;;;;5.72;3.13;;;;;;;-0.81;100.00;101896.09;4945258;29;20795;-61
2022/02/28 04:42:53;;;;;;;7.22;3.22;;;;;;;-0.96;100.00;101893.50;4933951;29;20058;-56
2022/02/28 04:45:40;;;;;;;5.10;2.63;;;;;;;-1.12;100.00;101846.53;4935363;29;20425;-55
2022/02/28 04:48:24;;;;;;;6.35;2.95;;;;;;;-0.94;100.00;101873.66;4928269;29;20475;-54
2022/02/28 04:51:39;;;;;;;7.38;3.45;;;;;;;-0.86;100.00;101892.34;4929084;29;20543;-55
2022/02/28 04:54:34;;;;;;;17.35;3.17;;;;;;;-1.16;100.00;101846.25;4929402;29;20062;-52
2022/02/28 04:57:18;;;;;;;7.22;3.22;;;;;;;-0.87;100.00;101893.16;4929712;29;20479;-57
2022/02/28 05:00:05;;;;;;;7.10;3.70;;;;;;;-0.78;100.00;101898.91;4913827;29;20066;-62
2022/02/28 05:02:51;;;;;;;6.90;3.05;;;;;;;-0.74;100.00;101893.06;4925745;29;20068;-57
2022/02/28 05:05:37;;;;;;;6.05;3.30;;;;;;;-0.72;100.00;101907.06;4925247;29;20050;-54
2022/02/28 05:08:22;;;;;;;6.40;3.40;;;;;;;-0.81;100.00;101898.72;4929357;29;20054;-58
2022/02/28 05:11:07;;;;;;;5.00;2.85;;;;;;;-0.79;100.00;101884.97;4926263;29;20047;-57
2022/02/28 05:13:52;;;;;;;6.20;2.90;;;;;;;-0.74;100.00;101900.88;4927746;29;20127;-58
2022/02/28 05:16:37;;;;;;;6.18;3.00;;;;;;;-0.97;100.00;101877.78;4928152;29;20050;-56
2022/02/28 05:19:22;;;;;;;5.45;3.10;;;;;;;-0.82;100.00;101907.34;4927077;29;20046;-61
2022/02/28 05:22:06;;;;;;;6.35;3.15;;;;;;;-1.02;100.00;101854.06;4925328;29;20084;-58
2022/02/28 05:25:01;;;;;;;5.05;2.70;;;;;;;-0.96;100.00;101896.09;4928405;29;20070;-59
2022/02/28 05:27:48;;;;;;;5.45;2.67;;;;;;;-0.80;100.00;101901.41;4928540;29;20531;-53
2022/02/28 05:30:34;;;;;;;4.88;2.80;;;;;;;-0.72;100.00;101905.38;4914265;29;20155;-58
2022/02/28 05:33:19;;;;;;;6.20;3.25;;;;;;;-1.06;100.00;101859.03;4927709;29;20049;-58
2022/02/28 05:36:12;;;;;;;7.95;3.20;;;;;;;-0.64;100.00;101911.00;4928437;29;20111;-58
2022/02/28 05:39:03;;;;;;;7.90;3.17;;;;;;;-0.93;100.00;101865.06;4927353;29;20054;-57
2022/02/28 05:41:47;;;;;;;;;;;;;;;-0.57;100.00;101913.16;4923907;29;20082;-62
2022/02/28 05:44:32;;;;;;;5.90;3.20;;;;;;;-0.60;100.00;101903.47;4928984;29;21940;-57
2022/02/28 05:47:17;;;;;;;7.60;3.47;;;;;;;-0.65;100.00;101911.81;4910745;29;20074;-59
2022/02/28 05:50:05;;;;;;;6.60;3.03;;;;;;;-0.57;100.00;101916.69;4927873;29;20050;-56
2022/02/28 05:52:49;;;;;;;6.35;2.92;;;;;;;-0.72;100.00;101883.63;4927425;29;20138;-55
2022/02/28 05:55:36;;;;;;;5.90;3.53;;;;;;;-0.41;100.00;101919.38;4928025;29;20079;-54
2022/02/28 05:58:20;;;;;;;7.30;3.33;;;;;;;-0.28;100.00;101923.56;4929564;29;20174;-59
2022/02/28 06:01:05;;;;;;;12.52;5.82;;;;;;;-0.17;100.00;101910.34;4928547;29;20467;-60
2022/02/28 06:03:49;;;;;;;6.20;3.63;;;;;;;-0.25;100.00;101871.59;4927475;29;20143;-58
2022/02/28 06:06:33;;;;;;;6.55;2.92;;;;;;;0.03;100.00;101921.00;4926888;29;20065;-59
2022/02/28 06:09:18;;;;;;;6.07;2.78;;;;;;;0.15;100.00;101916.47;4932039;29;20602;-58
2022/02/28 06:12:04;;;;;;;7.10;2.80;;;;;;;0.26;100.00;101921.44;4928692;29;20075;-56
2022/02/28 06:14:48;;;;;;;13.38;2.92;;;;;;;0.43;100.00;101917.16;4932407;29;20067;-54
2022/02/28 06:17:33;;;;;;;5.78;3.08;;;;;;;0.50;100.00;101919.25;4930461;29;20066;-59
2022/02/28 06:20:18;;;;;;;6.82;3.15;;;;;;;0.62;100.00;101915.59;4932282;29;20061;-62
2022/02/28 06:23:04;;;;;;;4.55;2.60;;;;;;;0.72;100.00;101909.16;4931888;29;20126;-55
2022/02/28 06:25:48;;;;;;;5.65;2.85;;;;;;;0.95;100.00;101927.81;4929145;29;20057;-56
2022/02/28 06:28:33;;;;;;;6.63;2.90;;;;;;;1.19;100.00;101916.03;4929454;29;20179;-58
2022/02/28 06:31:17;;;;;;;8.45;3.38;;;;;;;1.47;100.00;101916.66;4928535;29;20756;-58
2022/02/28 06:34:02;;;;;;;5.63;2.88;;;;;;;1.76;100.00;101913.75;4928539;29;20133;-57
2022/02/28 06:36:46;;;;;;;5.20;2.40;;;;;;;1.89;100.00;101933.53;4931216;29;20046;-55
2022/02/28 06:39:31;;;;;;;3.90;2.75;;;;;;;1.74;100.00;101870.91;4928359;29;20058;-60
2022/02/28 06:42:16;;;;;;;3.72;2.40;;;;;;;1.92;100.00;101902.31;4917171;29;20055;-56
2022/02/28 06:45:01;;;;;;;4.47;2.22;;;;;;;2.08;100.00;101934.53;4930400;29;20053;-54
2022/02/28 06:47:48;;;;;;;3.95;2.22;;;;;;;1.97;100.00;101948.78;4945261;29;20089;-56
2022/02/28 06:50:33;;;;;;;6.22;2.13;;;;;;;1.72;100.00;101932.72;4950090;29;20527;-57
2022/02/28 06:53:18;;;;;;;5.22;2.13;;;;;;;1.83;100.00;101939.38;4950455;29;20071;-59
2022/02/28 06:56:04;;;;;;;17.30;2.50;;;;;;;1.80;100.00;101939.22;4950882;29;20054;-58
2022/02/28 06:58:48;;;;;;;;;;;;;;;1.88;100.00;101940.50;4935650;29;20102;-63
2022/02/28 07:01:36;;;;;;;4.38;1.95;;;;;;;1.78;100.00;101938.25;4951183;28;19929;-53
2022/02/28 07:04:45;;;;;;;3.97;1.88;;;;;;;1.61;100.00;101899.00;4951276;29;20117;-54
2022/02/28 07:07:30;;;;;;;5.07;2.20;;;;;;;1.88;100.00;101942.22;4907888;29;20127;-55
2022/02/28 07:10:15;;;;;;;6.85;2.20;;;;;;;2.00;100.00;101932.34;4934427;29;20074;-59
2022/02/28 07:13:00;;;;;;;2.63;1.90;;;;;;;1.99;100.00;101941.94;4948671;29;20097;-59
2022/02/28 07:15:47;;;;;;;4.18;1.80;;;;;;;2.12;100.00;101927.69;4931869;29;20058;-57
2022/02/28 07:18:32;;;;;;;6.43;2.45;;;;;;;2.22;100.00;101937.81;4947099;28;20463;-55
2022/02/28 07:21:18;;;;;;;5.22;2.10;;;;;;;2.35;100.00;101930.59;4918725;29;20081;-60
2022/02/28 07:24:04;;;;;;;3.30;2.05;;;;;;;2.49;100.00;101929.50;4934452;29;20053;-59
2022/02/28 07:26:49;;;;;;;4.82;2.17;;;;;;;2.51;100.00;101934.81;4947526;29;20117;-62
2022/02/28 07:29:33;;;;;;;6.25;2.10;;;;;;;2.56;100.00;101938.53;4948520;28;20062;-57
2022/02/28 07:32:18;;;;;;;7.38;2.22;;;;;;;2.78;100.00;101934.38;4949544;29;20888;-57
2022/02/28 07:35:03;;;;;;;7.18;2.28;;;;;;;2.76;100.00;101933.41;4948913;29;20102;-55
2022/02/28 07:37:48;;;;;;;11.02;2.35;;;;;;;2.87;100.00;101929.56;4949205;29;20061;-53
2022/02/28 07:40:34;;;;;;;6.05;1.95;;;;;;;3.04;100.00;101931.19;4947033;29;20069;-52
2022/02/28 07:43:18;;;;;;;;;;;;;;;3.14;100.00;101935.13;4954591;29;20062;-54
2022/02/28 07:46:04;;;;;;;6.37;1.90;;;;;;;3.17;100.00;101914.28;4936335;29;19980;-54
2022/02/28 07:48:49;;;;;;;;;;;;;;;3.56;100.00;101931.72;4950347;29;20054;-57
2022/02/28 07:51:33;;;;;;;4.03;1.70;;;;;;;3.68;100.00;101921.75;4948980;28;20661;-55
2022/02/28 07:54:18;;;;;;;3.63;1.90;;;;;;;4.20;100.00;101926.53;4934188;29;20455;-57
2022/02/28 07:57:03;;;;;;;6.30;1.60;;;;;;;4.57;100.00;101936.75;4949290;29;20098;-60
2022/02/28 07:59:48;;;;;;;2.80;1.63;;;;;;;4.93;100.00;101906.59;4930943;29;20078;-55
2022/02/28 08:02:42;;;;;;;6.90;1.70;;;;;;;5.44;100.00;101932.13;4927456;29;20151;-58
2022/02/28 08:05:28;;;;;;;6.20;1.73;;;;;;;5.53;100.00;101934.19;4933617;29;20534;-62
2022/02/28 08:08:13;;;;;;;6.95;1.50;;;;;;;5.90;100.00;101930.25;4933414;29;20058;-66
2022/02/28 08:10:57;;;;;;;6.50;1.60;;;;;;;6.04;100.00;101923.69;4945556;29;20141;-66
2022/02/28 08:13:42;;;;;;;3.53;1.65;;;;;;;5.84;100.00;101927.41;4930110;29;20050;-68
2022/02/28 08:16:27;;;;;;;3.80;1.67;;;;;;;5.83;100.00;101938.78;4932690;29;20054;-68
2022/02/28 08:19:13;;;;;;;6.50;1.60;;;;;;;5.85;100.00;101937.09;4945873;29;20522;-62
2022/02/28 08:21:58;;;;;;;4.50;1.60;;;;;;;5.81;100.00;101929.94;4933688;29;20476;-63
2022/02/28 08:24:42;;;;;;;5.65;1.70;;;;;;;5.61;100.00;101925.69;4932954;29;20074;-65
2022/02/28 08:27:27;;;;;;;7.28;2.00;;;;;;;5.73;100.00;101931.38;4949344;29;20053;-63
2022/02/28 08:30:12;;;;;;;7.45;1.80;;;;;;;5.74;100.00;101927.91;4917549;29;20058;-65
2022/02/28 08:32:57;;;;;;;4.88;1.38;;;;;;;5.53;100.00;101936.81;4947278;29;20759;-64
2022/02/28 08:35:41;;;;;;;;;;;;;;;5.63;100.00;101924.03;4934045;29;20106;-59
2022/02/28 08:38:26;;;;;;;9.82;2.00;;;;;;;5.55;100.00;101921.97;4947768;28;20437;-61
2022/02/28 08:41:11;;;;;;;5.65;1.77;;;;;;;5.53;100.00;101932.44;4934039;29;20094;-62
2022/02/28 08:43:56;;;;;;;5.22;1.67;;;;;;;5.39;100.00;101915.28;4936780;29;20162;-65
2022/02/28 08:46:40;;;;;;;3.40;1.63;;;;;;;5.32;100.00;101878.19;4946600;29;20058;-64
2022/02/28 08:49:26;;;;;;;3.50;1.70;;;;;;;5.64;100.00;101925.81;4920294;29;20078;-64
2022/02/28 08:52:11;;;;;;;3.60;1.90;;;;;;;5.58;100.00;101933.47;4943654;29;20077;-61
2022/02/28 08:54:55;;;;;;;2.50;1.60;;;;;;;5.35;100.00;101886.19;4948406;29;20122;-62
2022/02/28 08:57:40;;;;;;;6.85;1.83;;;;;;;5.62;100.00;101922.22;4929412;29;20078;-62
2022/02/28 09:00:25;;;;;;;6.03;1.92;;;;;;;5.75;100.00;101913.91;4948029;29;20070;-62
2022/02/28 09:03:13;;;;;;;2.53;1.60;;;;;;;5.83;100.00;101919.47;4932866;29;20581;-62
2022/02/28 09:05:57;;;;;;;4.57;1.50;;;;;;;5.69;100.00;101912.81;4931466;29;20078;-66
2022/02/28 09:08:43;;;;;;;3.13;1.27;;;;;;;5.58;100.00;101912.44;4946945;29;20077;-63
2022/02/28 09:11:30;;;;;;;5.22;1.52;;;;;;;5.57;100.00;101902.75;4944835;29;20169;-62
2022/02/28 09:14:14;;;;;;;3.63;1.50;;;;;;;5.34;100.00;101864.25;4948677;29;20054;-63
2022/02/28 09:16:59;;;;;;;4.63;1.70;;;;;;;5.86;100.00;101911.66;4944682;29;21463;-64
2022/02/28 09:19:44;;;;;;;6.65;1.83;;;;;;;5.97;100.00;101912.91;4948775;29;20113;-63
2022/02/28 09:22:29;;;;;;;3.28;1.50;;;;;;;5.87;100.00;101911.72;4947415;29;20073;-61
2022/02/28 09:25:14;;;;;;;6.20;1.75;;;;;;;6.04;100.00;101912.25;4947241;29;20675;-65
2022/02/28 09:27:59;;;;;;;2.72;1.50;;;;;;;6.22;100.00;101907.59;4949125;29;20057;-62
2022/02/28 09:30:44;;;;;;;4.23;1.73;;;;;;;6.41;100.00;101915.22;4946956;29;20408;-63
2022/02/28 09:33:28;;;;;;;3.33;1.25;;;;;;;6.49;100.00;101919.84;4947963;29;20290;-55
2022/02/28 09:36:15;;;;;;;10.80;2.05;;;;;;;6.47;100.00;101911.03;4947197;29;20577;-56
2022/02/28 09:38:59;;;;;;;3.22;1.40;;;;;;;6.50;100.00;101902.31;4947077;29;20054;-58
2022/02/28 09:41:53;;;;;;;6.28;2.95;;;;;;;6.70;100.00;101912.63;4931801;29;20479;-57
2022/02/28 09:44:57;;;;;;;4.05;1.48;;;;;;;6.82;100.00;101904.16;4929895;29;20511;-57
2022/02/28 09:48:12;;;;;;;6.32;1.80;;;;;;;6.86;100.00;101893.75;4889094;29;20067;-55
2022/02/28 09:51:15;;;;;;;3.63;1.20;;;;;;;6.56;98.41;101887.56;4890471;29;20088;-60
2022/02/28 09:54:18;;;;;;;1.10;0.80;;;;;;;6.30;100.00;101899.09;4875313;29;20505;-55
2022/02/28 09:57:45;;;;;;;1.45;0.90;;;;;;;6.25;99.96;101892.75;4892501;29;20091;-57
2022/02/28 10:00:33;;;;;;;3.42;1.00;;;;;;;6.27;100.00;101883.16;4878884;29;20115;-64
2022/02/28 10:03:19;;;;;;;6.03;1.58;;;;;;;6.43;100.00;101882.78;4878222;29;20135;-56
2022/02/28 10:06:03;;;;;;;4.03;1.67;;;;;;;6.47;98.92;101887.31;4874156;29;20159;-57
2022/02/28 10:08:53;;;;;;;8.82;1.80;;;;;;;6.68;97.93;101881.78;4890358;29;20059;-55
2022/02/28 10:11:42;;;;;;;2.20;1.40;;;;;;;6.39;97.83;101849.28;4893314;29;20056;-59
2022/02/28 10:14:31;;;;;;;3.00;1.67;;;;;;;6.72;97.75;101887.16;4876099;29;20059;-61
2022/02/28 10:17:17;;;;;;;2.53;1.58;;;;;;;6.68;97.04;101877.38;4850616;29;20126;-54
2022/02/28 10:20:12;;;;;;;10.65;1.88;;;;;;;6.88;97.39;101877.97;4892775;29;20107;-54
2022/02/28 10:23:03;;;;;;;4.25;1.23;;;;;;;6.83;95.03;101875.19;4875923;29;20475;-60
2022/02/28 10:25:53;;;;;;;2.50;1.42;;;;;;;6.77;95.81;101877.63;4913321;29;20160;-54
2022/02/28 10:29:09;;;;;;;4.20;1.33;;;;;;;6.55;96.54;101874.34;4918199;29;20055;-57
2022/02/28 10:32:16;;;;;;;3.92;1.50;;;;;;;6.79;95.98;101867.16;4889603;29;20532;-56
2022/02/28 10:39:14;;;;;;;3.15;1.40;;;;;;;6.75;93.36;101839.81;4884306;29;20140;-61
2022/02/28 10:42:15;;;;;;;15.60;1.55;;;;;;;7.11;93.14;101875.13;4883710;29;20115;-58
2022/02/28 10:45:27;;;;;;;4.50;1.60;;;;;;;7.47;92.32;101864.63;4875610;29;20051;-58
2022/02/28 10:48:12;;;;;;;6.22;1.40;;;;;;;7.47;90.18;101859.34;4869926;29;20562;-55
2022/02/28 10:50:56;;;;;;;4.00;1.20;;;;;;;7.53;88.46;101857.78;4884324;29;20561;-56
2022/02/28 10:53:42;;;;;;;1.85;1.30;;;;;;;7.56;87.81;101849.03;4875879;29;20144;-55
2022/02/28 10:56:43;;;;;;;6.85;1.15;;;;;;;7.98;86.79;101861.53;4879807;29;20582;-54
2022/02/28 10:59:44;;;;;;;2.72;1.23;;;;;;;8.07;85.61;101867.03;4889698;29;20524;-56
2022/02/28 11:02:36;;;;;;;3.40;1.23;;;;;;;7.78;85.52;101819.66;4877957;29;20100;-60
2022/02/28 11:05:26;;;;;;;2.15;1.30;;;;;;;7.89;84.90;101860.44;4890796;29;20064;-56
2022/02/28 11:08:18;;;;;;;5.40;1.25;;;;;;;7.78;84.47;101832.84;4887644;29;20114;-58
2022/02/28 11:11:13;;;;;;;1.85;1.13;;;;;;;7.93;82.77;101857.00;4937185;29;20090;-62
2022/02/28 11:14:01;;;;;;;2.50;1.20;;;;;;;8.07;82.22;101861.75;4938611;29;20472;-57
2022/02/28 11:16:47;;;;;;;4.60;1.10;;;;;;;7.90;81.29;101852.53;4954065;29;20674;-54
2022/02/28 11:19:33;;;;;;;3.08;1.05;;;;;;;7.82;81.29;101848.81;4950697;29;20167;-57
2022/02/28 11:22:19;;;;;;;3.88;1.23;;;;;;;7.93;81.16;101851.72;4951794;29;20102;-58
2022/02/28 11:25:10;;;;;;;2.13;1.42;;;;;;;8.16;79.16;101848.75;4950076;29;20118;-55
2022/02/28 11:27:59;;;;;;;8.77;1.60;;;;;;;8.31;78.56;101846.47;4937672;29;20098;-56
2022/02/28 11:30:45;;;;;;;2.92;1.17;;;;;;;8.84;75.23;101832.66;4933567;29;20045;-53
2022/02/28 11:33:31;;;;;;;4.45;2.08;;;;;;;9.27;74.18;101837.88;4923779;29;20062;-60
2022/02/28 11:36:18;;;;;;;3.40;1.20;;;;;;;10.60;67.77;101834.69;4936949;29;20126;-57
2022/02/28 11:39:12;;;;;;;2.40;1.23;;;;;;;12.32;60.41;101839.03;4934881;29;20058;-54
2022/02/28 11:41:58;;;;;;;2.85;1.15;;;;;;;13.19;54.70;101835.88;4935709;29;20054;-58
2022/02/28 11:44:59;;;;;;;3.20;0.90;;;;;;;14.27;50.26;101835.91;4938667;29;20054;-57
2022/02/28 11:47:43;;;;;;;5.60;1.30;;;;;;;14.89;44.61;101828.56;4948669;29;20066;-55
2022/02/28 11:50:28;;;;;;;2.28;1.05;;;;;;;14.41;39.72;101804.75;4937319;29;20049;-57
2022/02/28 11:53:12;;;;;;;3.40;1.23;;;;;;;14.65;41.69;101827.78;4936327;29;20143;-56
2022/02/28 11:55:58;;;;;;;2.40;1.08;;;;;;;14.30;42.14;101781.63;4952301;28;20062;-63
2022/02/28 11:59:02;;;;;;;2.25;0.90;;;;;;;14.60;41.69;101824.25;4950858;29;20158;-58
2022/02/28 12:01:57;;;;;;;1.23;1.13;;;;;;;14.62;42.88;101833.13;4937035;29;20062;-54
2022/02/28 12:04:45;;;;;;;3.07;1.00;;;;;;;14.25;43.05;101831.47;4949799;28;20257;-59
2022/02/28 12:07:35;;;;;;;3.83;1.00;;;;;;;14.24;40.94;101817.22;4951085;29;20154;-54
2022/02/28 12:10:20;;;;;;;3.72;1.25;;;;;;;14.58;41.93;101812.66;4922698;29;20122;-60
2022/02/28 12:13:05;;;;;;;3.30;1.30;;;;;;;14.48;40.34;101824.28;4949413;28;20054;-61
2022/02/28 12:15:52;;;;;;;1.95;1.05;;;;;;;13.89;40.04;101795.03;4937469;29;20559;-58
2022/02/28 12:18:37;;;;;;;1.35;1.05;;;;;;;13.68;41.56;101808.38;4933699;29;20058;-59
2022/02/28 12:21:35;;;;;;;1.77;1.10;;;;;;;13.51;42.94;101808.38;4947419;29;20102;-56
2022/02/28 12:25:04;;;;;;;4.53;1.20;;;;;;;13.47;44.04;101803.03;4947725;29;20093;-58
2022/02/28 12:27:49;;;;;;;7.65;1.63;;;;;;;13.22;43.67;101803.91;4950556;29;20531;-60
2022/02/28 12:30:35;;;;;;;3.28;1.17;;;;;;;13.20;44.59;101803.91;4920079;29;20050;-57
2022/02/28 12:33:47;;;;;;;4.25;1.42;;;;;;;13.45;43.53;101797.69;4936306;29;20046;-58
2022/02/28 12:36:33;;;;;;;3.33;1.17;;;;;;;12.71;44.48;101753.16;4935267;29;20526;-58
2022/02/28 12:39:18;;;;;;;1.95;1.10;;;;;;;12.63;44.49;101792.16;4934089;29;20085;-59
2022/02/28 12:42:07;;;;;;;1.52;1.27;;;;;;;12.40;46.00;101796.50;4949004;29;20106;-59
2022/02/28 12:44:57;;;;;;;1.90;1.13;;;;;;;12.07;48.40;101794.53;4932664;29;20559;-60
2022/02/28 12:47:42;;;;;;;2.50;1.23;;;;;;;11.90;47.68;101752.75;4935294;29;20141;-58
2022/02/28 12:50:28;;;;;;;3.47;1.15;;;;;;;12.18;46.89;101794.63;4934256;29;20081;-57
2022/02/28 12:53:16;;;;;;;4.47;1.10;;;;;;;12.01;48.07;101761.69;4933165;29;20118;-61
2022/02/28 12:56:06;;;;;;;2.70;1.10;;;;;;;11.86;47.18;101788.19;4947581;29;20530;-58
2022/02/28 12:58:53;;;;;;;2.78;1.25;;;;;;;11.64;49.37;101783.59;4946846;29;20139;-58
2022/02/28 13:01:39;;;;;;;2.15;1.30;;;;;;;11.63;50.84;101771.19;4949213;29;20078;-57